KSCK/SCK METAR and TAF weather

Enter ICAO airport designator
Station Type Date Time Source
KSCK METAR 2020/04/10 17:55 UTC NOAA

KSCK 101755Z 32004KT 10SM CLR 17/11 A3003 RMK AO2 SLP169 T01720111 10172 20089 56006


Station Type Date Time Source
KSCK Decoded METAR 2020/04/10 17:55 UTC NOAA

STOCKTON METROPOLITAN AIRPORT , CA, United States (KSCK) 37-54N 121-14W 10M
Apr 10, 2020 - 01:55 PM EDT / 2020.04.10 1755 UTC
Wind: from the NW (320 degrees) at 5 MPH (4 KT):0
Visibility: 10 mile(s):0
Sky conditions: clear
Temperature: 63.0 F (17.2 C)
Dew Point: 52.0 F (11.1 C)
Relative Humidity: 67%
Pressure (altimeter): 30.03 in. Hg (1016 hPa)
Pressure tendency: 0.02 inches (0.6 hPa) lower than three hours ago
ob: KSCK 101755Z 32004KT 10SM CLR 17/11 A3003 RMK AO2 SLP169 T01720111 10172 20089 56006
cycle: 18

Station Type Date Time Source
KSCK TAF 2020/04/10 18:33 UTC NOAA

TAF KSCK 101730Z 1018/1118 29007KT P6SM SKC

Example: see airport list